sensor_id;sensor_type;location;lat;lon;timestamp;P1;durP1;ratioP1;P2;durP2;ratioP2
48241;SDS011;34041;51.812;4.622;2023-06-14T00:00:22;3.77;;;2.90;;
48241;SDS011;34041;51.812;4.622;2023-06-14T00:03:22;7.68;;;3.40;;
48241;SDS011;34041;51.812;4.622;2023-06-14T00:06:24;5.95;;;3.35;;
48241;SDS011;34041;51.812;4.622;2023-06-14T00:09:25;4.82;;;2.55;;
48241;SDS011;34041;51.812;4.622;2023-06-14T00:12:25;5.97;;;3.77;;
48241;SDS011;34041;51.812;4.622;2023-06-14T00:15:26;5.78;;;3.45;;
48241;SDS011;34041;51.812;4.622;2023-06-14T00:18:26;4.45;;;2.53;;
48241;SDS011;34041;51.812;4.622;2023-06-14T00:21:29;5.70;;;2.65;;
48241;SDS011;34041;51.812;4.622;2023-06-14T00:24:29;7.03;;;3.40;;
48241;SDS011;34041;51.812;4.622;2023-06-14T00:27:30;5.30;;;2.53;;
48241;SDS011;34041;51.812;4.622;2023-06-14T00:30:30;3.63;;;2.30;;
48241;SDS011;34041;51.812;4.622;2023-06-14T00:33:30;7.65;;;3.05;;
48241;SDS011;34041;51.812;4.622;2023-06-14T00:36:31;10.20;;;3.77;;
48241;SDS011;34041;51.812;4.622;2023-06-14T00:39:31;6.43;;;3.10;;
48241;SDS011;34041;51.812;4.622;2023-06-14T00:42:31;5.70;;;2.87;;
48241;SDS011;34041;51.812;4.622;2023-06-14T00:45:31;5.47;;;3.63;;
48241;SDS011;34041;51.812;4.622;2023-06-14T00:48:36;6.43;;;3.50;;
48241;SDS011;34041;51.812;4.622;2023-06-14T00:51:37;7.75;;;3.08;;
48241;SDS011;34041;51.812;4.622;2023-06-14T00:54:37;8.32;;;3.38;;
48241;SDS011;34041;51.812;4.622;2023-06-14T00:57:38;7.28;;;3.38;;
48241;SDS011;34041;51.812;4.622;2023-06-14T01:00:40;10.05;;;3.78;;
48241;SDS011;34041;51.812;4.622;2023-06-14T01:03:40;5.87;;;3.40;;
48241;SDS011;34041;51.812;4.622;2023-06-14T01:06:42;6.45;;;3.92;;
48241;SDS011;34041;51.812;4.622;2023-06-14T01:09:50;4.93;;;3.38;;
48241;SDS011;34041;51.812;4.622;2023-06-14T01:16:13;11.27;;;3.38;;
48241;SDS011;34041;51.812;4.622;2023-06-14T01:19:14;8.30;;;3.67;;
48241;SDS011;34041;51.812;4.622;2023-06-14T01:22:15;5.75;;;3.70;;
48241;SDS011;34041;51.812;4.622;2023-06-14T01:25:15;4.90;;;3.00;;
48241;SDS011;34041;51.812;4.622;2023-06-14T01:28:16;10.18;;;3.78;;
48241;SDS011;34041;51.812;4.622;2023-06-14T01:31:18;8.02;;;3.20;;
48241;SDS011;34041;51.812;4.622;2023-06-14T01:34:19;7.82;;;3.83;;
48241;SDS011;34041;51.812;4.622;2023-06-14T01:37:20;6.30;;;2.78;;
48241;SDS011;34041;51.812;4.622;2023-06-14T01:40:21;4.53;;;3.42;;
48241;SDS011;34041;51.812;4.622;2023-06-14T01:43:22;6.15;;;3.45;;
48241;SDS011;34041;51.812;4.622;2023-06-14T01:46:23;6.65;;;3.70;;
48241;SDS011;34041;51.812;4.622;2023-06-14T01:49:24;9.38;;;3.72;;
48241;SDS011;34041;51.812;4.622;2023-06-14T01:52:24;5.18;;;3.92;;
48241;SDS011;34041;51.812;4.622;2023-06-14T01:55:24;5.97;;;3.30;;
48241;SDS011;34041;51.812;4.622;2023-06-14T01:58:25;4.90;;;3.40;;
48241;SDS011;34041;51.812;4.622;2023-06-14T02:01:26;5.93;;;3.35;;
48241;SDS011;34041;51.812;4.622;2023-06-14T02:04:26;5.10;;;3.65;;
48241;SDS011;34041;51.812;4.622;2023-06-14T02:07:27;6.90;;;3.63;;
48241;SDS011;34041;51.812;4.622;2023-06-14T02:10:27;9.07;;;3.80;;
48241;SDS011;34041;51.812;4.622;2023-06-14T02:13:27;6.70;;;3.23;;
48241;SDS011;34041;51.812;4.622;2023-06-14T02:16:27;10.90;;;3.73;;
48241;SDS011;34041;51.812;4.622;2023-06-14T02:19:29;8.05;;;3.67;;
48241;SDS011;34041;51.812;4.622;2023-06-14T02:22:30;7.22;;;3.17;;
48241;SDS011;34041;51.812;4.622;2023-06-14T02:25:30;8.30;;;3.27;;
48241;SDS011;34041;51.812;4.622;2023-06-14T02:28:30;5.60;;;3.20;;
48241;SDS011;34041;51.812;4.622;2023-06-14T02:31:31;5.70;;;3.40;;
48241;SDS011;34041;51.812;4.622;2023-06-14T02:34:31;6.43;;;3.35;;
48241;SDS011;34041;51.812;4.622;2023-06-14T02:37:32;5.60;;;3.28;;
48241;SDS011;34041;51.812;4.622;2023-06-14T02:40:33;8.13;;;2.97;;
48241;SDS011;34041;51.812;4.622;2023-06-14T02:43:34;6.35;;;3.40;;
48241;SDS011;34041;51.812;4.622;2023-06-14T02:46:34;4.63;;;3.60;;
48241;SDS011;34041;51.812;4.622;2023-06-14T02:49:35;5.45;;;3.92;;
48241;SDS011;34041;51.812;4.622;2023-06-14T02:52:35;6.60;;;3.53;;
48241;SDS011;34041;51.812;4.622;2023-06-14T02:55:35;4.00;;;3.40;;
48241;SDS011;34041;51.812;4.622;2023-06-14T02:58:39;6.57;;;3.38;;
48241;SDS011;34041;51.812;4.622;2023-06-14T03:01:40;10.38;;;4.15;;
48241;SDS011;34041;51.812;4.622;2023-06-14T03:04:41;4.97;;;3.38;;
48241;SDS011;34041;51.812;4.622;2023-06-14T03:07:44;7.63;;;3.80;;
48241;SDS011;34041;51.812;4.622;2023-06-14T03:10:48;9.02;;;3.55;;
48241;SDS011;34041;51.812;4.622;2023-06-14T03:13:48;4.82;;;3.30;;
48241;SDS011;34041;51.812;4.622;2023-06-14T03:16:48;7.17;;;3.90;;
48241;SDS011;34041;51.812;4.622;2023-06-14T03:19:50;5.63;;;3.60;;
48241;SDS011;34041;51.812;4.622;2023-06-14T03:22:50;6.63;;;3.63;;
48241;SDS011;34041;51.812;4.622;2023-06-14T03:25:50;9.13;;;4.60;;
48241;SDS011;34041;51.812;4.622;2023-06-14T03:28:51;9.05;;;3.30;;
48241;SDS011;34041;51.812;4.622;2023-06-14T03:31:59;8.23;;;3.67;;
48241;SDS011;34041;51.812;4.622;2023-06-14T03:34:59;5.00;;;3.50;;
48241;SDS011;34041;51.812;4.622;2023-06-14T03:37:59;5.83;;;3.20;;
48241;SDS011;34041;51.812;4.622;2023-06-14T03:41:00;5.50;;;3.70;;
48241;SDS011;34041;51.812;4.622;2023-06-14T03:44:00;5.50;;;3.13;;
48241;SDS011;34041;51.812;4.622;2023-06-14T03:47:00;6.83;;;3.87;;
48241;SDS011;34041;51.812;4.622;2023-06-14T03:50:01;6.23;;;3.40;;
48241;SDS011;34041;51.812;4.622;2023-06-14T03:53:02;6.15;;;4.57;;
48241;SDS011;34041;51.812;4.622;2023-06-14T03:56:02;9.15;;;3.67;;
48241;SDS011;34041;51.812;4.622;2023-06-14T03:59:03;6.53;;;3.35;;
48241;SDS011;34041;51.812;4.622;2023-06-14T04:02:03;8.50;;;3.43;;
48241;SDS011;34041;51.812;4.622;2023-06-14T04:05:03;6.13;;;3.25;;
48241;SDS011;34041;51.812;4.622;2023-06-14T04:08:05;9.05;;;4.25;;
48241;SDS011;34041;51.812;4.622;2023-06-14T04:11:08;6.80;;;3.40;;
48241;SDS011;34041;51.812;4.622;2023-06-14T04:14:09;7.87;;;3.37;;
48241;SDS011;34041;51.812;4.622;2023-06-14T04:17:09;7.82;;;4.10;;
48241;SDS011;34041;51.812;4.622;2023-06-14T04:20:10;6.28;;;3.65;;
48241;SDS011;34041;51.812;4.622;2023-06-14T04:23:14;7.85;;;3.63;;
48241;SDS011;34041;51.812;4.622;2023-06-14T04:26:15;5.70;;;3.47;;
48241;SDS011;34041;51.812;4.622;2023-06-14T04:29:16;6.00;;;3.88;;
48241;SDS011;34041;51.812;4.622;2023-06-14T04:32:19;6.07;;;3.40;;
48241;SDS011;34041;51.812;4.622;2023-06-14T04:35:19;6.70;;;3.33;;
48241;SDS011;34041;51.812;4.622;2023-06-14T04:38:20;6.13;;;3.90;;
48241;SDS011;34041;51.812;4.622;2023-06-14T04:41:25;8.35;;;4.00;;
48241;SDS011;34041;51.812;4.622;2023-06-14T04:44:28;11.52;;;3.75;;
48241;SDS011;34041;51.812;4.622;2023-06-14T04:47:31;5.85;;;3.25;;
48241;SDS011;34041;51.812;4.622;2023-06-14T04:50:32;5.38;;;3.10;;
48241;SDS011;34041;51.812;4.622;2023-06-14T04:53:33;5.15;;;3.17;;
48241;SDS011;34041;51.812;4.622;2023-06-14T04:56:34;5.60;;;2.85;;
48241;SDS011;34041;51.812;4.622;2023-06-14T04:59:34;6.25;;;4.00;;
48241;SDS011;34041;51.812;4.622;2023-06-14T05:02:35;7.75;;;3.47;;
48241;SDS011;34041;51.812;4.622;2023-06-14T05:05:37;5.53;;;2.88;;
48241;SDS011;34041;51.812;4.622;2023-06-14T05:08:38;5.90;;;2.70;;
48241;SDS011;34041;51.812;4.622;2023-06-14T05:11:38;3.70;;;2.60;;
48241;SDS011;34041;51.812;4.622;2023-06-14T05:14:38;6.77;;;3.10;;
48241;SDS011;34041;51.812;4.622;2023-06-14T05:17:39;5.22;;;2.75;;
48241;SDS011;34041;51.812;4.622;2023-06-14T05:20:40;4.90;;;3.15;;
48241;SDS011;34041;51.812;4.622;2023-06-14T05:23:41;4.93;;;2.17;;
48241;SDS011;34041;51.812;4.622;2023-06-14T05:26:42;4.32;;;2.88;;
48241;SDS011;34041;51.812;4.622;2023-06-14T05:29:42;6.00;;;3.20;;
48241;SDS011;34041;51.812;4.622;2023-06-14T05:32:43;5.05;;;2.83;;
48241;SDS011;34041;51.812;4.622;2023-06-14T05:35:43;5.03;;;2.33;;
48241;SDS011;34041;51.812;4.622;2023-06-14T05:38:43;4.30;;;2.13;;
48241;SDS011;34041;51.812;4.622;2023-06-14T05:41:43;5.70;;;2.67;;
48241;SDS011;34041;51.812;4.622;2023-06-14T05:44:43;5.27;;;2.90;;
48241;SDS011;34041;51.812;4.622;2023-06-14T05:47:44;3.70;;;2.63;;
48241;SDS011;34041;51.812;4.622;2023-06-14T05:50:44;6.13;;;2.58;;
48241;SDS011;34041;51.812;4.622;2023-06-14T05:53:45;4.10;;;2.53;;
48241;SDS011;34041;51.812;4.622;2023-06-14T05:56:46;3.72;;;2.30;;
48241;SDS011;34041;51.812;4.622;2023-06-14T05:59:46;10.97;;;3.47;;
48241;SDS011;34041;51.812;4.622;2023-06-14T06:02:46;5.57;;;2.80;;
48241;SDS011;34041;51.812;4.622;2023-06-14T06:05:49;3.88;;;2.63;;
48241;SDS011;34041;51.812;4.622;2023-06-14T06:08:49;5.63;;;2.87;;
48241;SDS011;34041;51.812;4.622;2023-06-14T06:11:49;4.88;;;2.97;;
48241;SDS011;34041;51.812;4.622;2023-06-14T06:14:50;4.53;;;2.70;;
48241;SDS011;34041;51.812;4.622;2023-06-14T06:17:50;3.67;;;2.50;;
48241;SDS011;34041;51.812;4.622;2023-06-14T06:20:51;6.28;;;3.03;;
48241;SDS011;34041;51.812;4.622;2023-06-14T06:23:51;4.67;;;2.80;;
48241;SDS011;34041;51.812;4.622;2023-06-14T06:26:51;8.07;;;2.95;;
48241;SDS011;34041;51.812;4.622;2023-06-14T06:29:51;4.63;;;2.73;;
48241;SDS011;34041;51.812;4.622;2023-06-14T06:32:52;4.23;;;2.40;;
48241;SDS011;34041;51.812;4.622;2023-06-14T06:35:53;4.45;;;2.65;;
48241;SDS011;34041;51.812;4.622;2023-06-14T06:38:53;5.00;;;2.75;;
48241;SDS011;34041;51.812;4.622;2023-06-14T06:41:53;6.47;;;2.83;;
48241;SDS011;34041;51.812;4.622;2023-06-14T06:44:53;5.40;;;2.63;;
48241;SDS011;34041;51.812;4.622;2023-06-14T06:47:54;4.63;;;2.87;;
48241;SDS011;34041;51.812;4.622;2023-06-14T06:50:55;4.30;;;2.40;;
48241;SDS011;34041;51.812;4.622;2023-06-14T06:53:55;5.67;;;2.47;;
48241;SDS011;34041;51.812;4.622;2023-06-14T06:56:56;6.20;;;2.70;;
48241;SDS011;34041;51.812;4.622;2023-06-14T06:59:56;6.38;;;3.13;;
48241;SDS011;34041;51.812;4.622;2023-06-14T07:02:56;3.80;;;2.38;;
48241;SDS011;34041;51.812;4.622;2023-06-14T07:05:57;3.43;;;2.40;;
48241;SDS011;34041;51.812;4.622;2023-06-14T07:08:57;4.57;;;2.73;;
48241;SDS011;34041;51.812;4.622;2023-06-14T07:12:01;5.18;;;2.72;;
48241;SDS011;34041;51.812;4.622;2023-06-14T07:15:01;7.70;;;3.00;;
48241;SDS011;34041;51.812;4.622;2023-06-14T07:18:01;5.70;;;2.87;;
48241;SDS011;34041;51.812;4.622;2023-06-14T07:21:02;3.10;;;2.10;;
48241;SDS011;34041;51.812;4.622;2023-06-14T07:24:02;5.90;;;2.77;;
48241;SDS011;34041;51.812;4.622;2023-06-14T07:27:02;5.30;;;3.03;;
48241;SDS011;34041;51.812;4.622;2023-06-14T07:30:04;5.18;;;2.78;;
48241;SDS011;34041;51.812;4.622;2023-06-14T07:33:04;4.05;;;2.60;;
48241;SDS011;34041;51.812;4.622;2023-06-14T07:36:05;6.07;;;3.05;;
48241;SDS011;34041;51.812;4.622;2023-06-14T07:39:06;3.70;;;2.20;;
48241;SDS011;34041;51.812;4.622;2023-06-14T07:42:06;4.20;;;2.28;;
48241;SDS011;34041;51.812;4.622;2023-06-14T07:45:06;4.82;;;2.90;;
48241;SDS011;34041;51.812;4.622;2023-06-14T07:48:07;5.07;;;2.60;;
48241;SDS011;34041;51.812;4.622;2023-06-14T07:51:07;10.10;;;3.07;;
48241;SDS011;34041;51.812;4.622;2023-06-14T07:54:07;7.72;;;2.13;;
48241;SDS011;34041;51.812;4.622;2023-06-14T07:57:08;4.90;;;2.38;;
48241;SDS011;34041;51.812;4.622;2023-06-14T08:00:08;4.63;;;3.13;;
48241;SDS011;34041;51.812;4.622;2023-06-14T08:03:11;3.83;;;2.15;;
48241;SDS011;34041;51.812;4.622;2023-06-14T08:06:11;4.77;;;2.93;;
48241;SDS011;34041;51.812;4.622;2023-06-14T08:09:12;3.97;;;2.23;;
48241;SDS011;34041;51.812;4.622;2023-06-14T08:12:12;4.22;;;2.60;;
48241;SDS011;34041;51.812;4.622;2023-06-14T08:15:13;5.18;;;3.33;;
48241;SDS011;34041;51.812;4.622;2023-06-14T08:18:13;3.10;;;2.00;;
48241;SDS011;34041;51.812;4.622;2023-06-14T08:21:13;9.37;;;2.40;;
48241;SDS011;34041;51.812;4.622;2023-06-14T08:24:14;5.07;;;3.15;;
48241;SDS011;34041;51.812;4.622;2023-06-14T08:27:15;7.33;;;2.60;;
48241;SDS011;34041;51.812;4.622;2023-06-14T08:30:15;4.90;;;3.00;;
48241;SDS011;34041;51.812;4.622;2023-06-14T08:33:17;4.45;;;2.75;;
48241;SDS011;34041;51.812;4.622;2023-06-14T08:36:17;4.87;;;2.90;;
48241;SDS011;34041;51.812;4.622;2023-06-14T08:39:17;7.33;;;3.03;;
48241;SDS011;34041;51.812;4.622;2023-06-14T08:42:17;3.40;;;1.90;;
48241;SDS011;34041;51.812;4.622;2023-06-14T08:45:22;5.55;;;2.83;;
48241;SDS011;34041;51.812;4.622;2023-06-14T08:48:23;3.33;;;2.33;;
48241;SDS011;34041;51.812;4.622;2023-06-14T08:51:25;6.85;;;2.83;;
48241;SDS011;34041;51.812;4.622;2023-06-14T08:54:30;3.92;;;2.70;;
48241;SDS011;34041;51.812;4.622;2023-06-14T08:57:31;4.60;;;3.13;;
48241;SDS011;34041;51.812;4.622;2023-06-14T09:00:31;4.78;;;2.58;;
48241;SDS011;34041;51.812;4.622;2023-06-14T09:03:33;6.55;;;3.03;;
48241;SDS011;34041;51.812;4.622;2023-06-14T09:06:33;5.10;;;2.63;;
48241;SDS011;34041;51.812;4.622;2023-06-14T09:09:33;3.50;;;2.35;;
48241;SDS011;34041;51.812;4.622;2023-06-14T09:12:38;4.75;;;2.83;;
48241;SDS011;34041;51.812;4.622;2023-06-14T09:15:39;5.97;;;3.03;;
48241;SDS011;34041;51.812;4.622;2023-06-14T09:18:43;6.22;;;2.53;;
48241;SDS011;34041;51.812;4.622;2023-06-14T09:24:44;4.80;;;2.17;;
48241;SDS011;34041;51.812;4.622;2023-06-14T09:27:45;3.47;;;2.37;;
48241;SDS011;34041;51.812;4.622;2023-06-14T09:30:46;3.45;;;2.53;;
48241;SDS011;34041;51.812;4.622;2023-06-14T09:33:48;3.10;;;2.50;;
48241;SDS011;34041;51.812;4.622;2023-06-14T09:36:48;5.40;;;2.70;;
48241;SDS011;34041;51.812;4.622;2023-06-14T09:39:49;3.45;;;2.22;;
48241;SDS011;34041;51.812;4.622;2023-06-14T09:42:50;5.53;;;2.50;;
48241;SDS011;34041;51.812;4.622;2023-06-14T09:45:51;3.85;;;2.45;;
48241;SDS011;34041;51.812;4.622;2023-06-14T09:48:51;3.80;;;2.03;;
48241;SDS011;34041;51.812;4.622;2023-06-14T09:51:51;3.47;;;1.97;;
48241;SDS011;34041;51.812;4.622;2023-06-14T09:54:53;4.22;;;2.55;;
48241;SDS011;34041;51.812;4.622;2023-06-14T09:57:54;6.10;;;2.03;;
48241;SDS011;34041;51.812;4.622;2023-06-14T10:00:56;3.05;;;2.10;;
48241;SDS011;34041;51.812;4.622;2023-06-14T10:04:06;4.55;;;1.95;;
48241;SDS011;34041;51.812;4.622;2023-06-14T10:07:07;3.00;;;1.70;;
48241;SDS011;34041;51.812;4.622;2023-06-14T10:10:07;3.90;;;2.10;;
48241;SDS011;34041;51.812;4.622;2023-06-14T10:13:08;4.75;;;2.17;;
48241;SDS011;34041;51.812;4.622;2023-06-14T10:16:20;3.63;;;2.08;;
48241;SDS011;34041;51.812;4.622;2023-06-14T10:19:29;5.10;;;1.85;;
48241;SDS011;34041;51.812;4.622;2023-06-14T10:22:38;5.13;;;1.77;;
48241;SDS011;34041;51.812;4.622;2023-06-14T10:25:41;2.85;;;2.05;;
48241;SDS011;34041;51.812;4.622;2023-06-14T10:28:42;4.07;;;1.60;;
48241;SDS011;34041;51.812;4.622;2023-06-14T10:31:56;5.55;;;2.00;;
48241;SDS011;34041;51.812;4.622;2023-06-14T10:34:58;4.10;;;1.88;;
48241;SDS011;34041;51.812;4.622;2023-06-14T10:38:13;3.85;;;2.00;;
48241;SDS011;34041;51.812;4.622;2023-06-14T10:41:14;3.38;;;2.22;;
48241;SDS011;34041;51.812;4.622;2023-06-14T10:44:38;4.85;;;1.63;;
48241;SDS011;34041;51.812;4.622;2023-06-14T10:47:37;4.88;;;1.88;;
48241;SDS011;34041;51.812;4.622;2023-06-14T10:50:39;2.60;;;1.45;;
48241;SDS011;34041;51.812;4.622;2023-06-14T10:53:42;3.00;;;2.20;;
48241;SDS011;34041;51.812;4.622;2023-06-14T10:56:49;3.60;;;1.43;;
48241;SDS011;34041;51.812;4.622;2023-06-14T10:59:50;3.58;;;1.40;;
48241;SDS011;34041;51.812;4.622;2023-06-14T11:06:12;4.63;;;1.42;;
48241;SDS011;34041;51.812;4.622;2023-06-14T11:12:16;3.92;;;1.38;;
48241;SDS011;34041;51.812;4.622;2023-06-14T11:15:17;3.60;;;1.90;;
48241;SDS011;34041;51.812;4.622;2023-06-14T11:18:18;2.27;;;1.50;;
48241;SDS011;34041;51.812;4.622;2023-06-14T11:21:18;3.13;;;1.05;;
48241;SDS011;34041;51.812;4.622;2023-06-14T11:24:19;3.53;;;1.33;;
48241;SDS011;34041;51.812;4.622;2023-06-14T11:27:19;2.92;;;1.50;;
48241;SDS011;34041;51.812;4.622;2023-06-14T11:30:20;2.33;;;1.53;;
48241;SDS011;34041;51.812;4.622;2023-06-14T11:33:20;2.63;;;1.27;;
48241;SDS011;34041;51.812;4.622;2023-06-14T11:36:20;2.20;;;1.15;;
48241;SDS011;34041;51.812;4.622;2023-06-14T11:39:24;2.10;;;1.70;;
48241;SDS011;34041;51.812;4.622;2023-06-14T11:42:26;2.08;;;1.30;;
48241;SDS011;34041;51.812;4.622;2023-06-14T11:45:27;2.08;;;1.30;;
48241;SDS011;34041;51.812;4.622;2023-06-14T11:51:57;3.20;;;1.17;;
48241;SDS011;34041;51.812;4.622;2023-06-14T11:54:57;2.50;;;1.07;;
48241;SDS011;34041;51.812;4.622;2023-06-14T11:57:58;2.35;;;1.23;;
48241;SDS011;34041;51.812;4.622;2023-06-14T12:00:58;2.42;;;1.20;;
48241;SDS011;34041;51.812;4.622;2023-06-14T12:03:59;2.38;;;1.40;;
48241;SDS011;34041;51.812;4.622;2023-06-14T12:07:11;2.72;;;1.35;;
48241;SDS011;34041;51.812;4.622;2023-06-14T12:10:15;5.50;;;1.50;;
48241;SDS011;34041;51.812;4.622;2023-06-14T12:13:16;2.03;;;1.35;;
48241;SDS011;34041;51.812;4.622;2023-06-14T12:16:17;2.85;;;1.30;;
48241;SDS011;34041;51.812;4.622;2023-06-14T12:19:17;2.40;;;1.58;;
48241;SDS011;34041;51.812;4.622;2023-06-14T12:22:17;2.92;;;1.15;;
48241;SDS011;34041;51.812;4.622;2023-06-14T12:25:27;3.03;;;1.57;;
48241;SDS011;34041;51.812;4.622;2023-06-14T12:28:30;1.90;;;1.17;;
48241;SDS011;34041;51.812;4.622;2023-06-14T12:31:31;2.53;;;1.30;;
48241;SDS011;34041;51.812;4.622;2023-06-14T12:34:31;4.13;;;1.42;;
48241;SDS011;34041;51.812;4.622;2023-06-14T12:37:31;1.83;;;1.13;;
48241;SDS011;34041;51.812;4.622;2023-06-14T12:40:31;3.97;;;1.50;;
48241;SDS011;34041;51.812;4.622;2023-06-14T12:43:33;2.47;;;1.38;;
48241;SDS011;34041;51.812;4.622;2023-06-14T12:46:33;2.78;;;1.77;;
48241;SDS011;34041;51.812;4.622;2023-06-14T12:49:34;3.28;;;1.30;;
48241;SDS011;34041;51.812;4.622;2023-06-14T12:52:35;3.17;;;1.70;;
48241;SDS011;34041;51.812;4.622;2023-06-14T12:55:36;2.70;;;1.35;;
48241;SDS011;34041;51.812;4.622;2023-06-14T12:58:36;2.27;;;1.33;;
48241;SDS011;34041;51.812;4.622;2023-06-14T13:01:37;2.20;;;1.30;;
48241;SDS011;34041;51.812;4.622;2023-06-14T13:04:38;3.88;;;1.52;;
48241;SDS011;34041;51.812;4.622;2023-06-14T13:07:38;3.30;;;1.60;;
48241;SDS011;34041;51.812;4.622;2023-06-14T13:10:38;2.27;;;1.40;;
48241;SDS011;34041;51.812;4.622;2023-06-14T13:13:38;2.67;;;1.57;;
48241;SDS011;34041;51.812;4.622;2023-06-14T13:16:39;2.60;;;1.33;;
48241;SDS011;34041;51.812;4.622;2023-06-14T13:19:39;3.05;;;1.48;;
48241;SDS011;34041;51.812;4.622;2023-06-14T13:22:39;4.10;;;1.42;;
48241;SDS011;34041;51.812;4.622;2023-06-14T13:25:40;2.25;;;1.35;;
48241;SDS011;34041;51.812;4.622;2023-06-14T13:28:40;2.43;;;1.30;;
48241;SDS011;34041;51.812;4.622;2023-06-14T13:31:40;2.70;;;1.53;;
48241;SDS011;34041;51.812;4.622;2023-06-14T13:34:40;2.35;;;1.60;;
48241;SDS011;34041;51.812;4.622;2023-06-14T13:37:41;2.70;;;1.53;;
48241;SDS011;34041;51.812;4.622;2023-06-14T13:40:41;1.47;;;1.00;;
48241;SDS011;34041;51.812;4.622;2023-06-14T13:43:42;2.60;;;1.52;;
48241;SDS011;34041;51.812;4.622;2023-06-14T13:46:42;4.10;;;1.43;;
48241;SDS011;34041;51.812;4.622;2023-06-14T13:49:42;4.78;;;1.40;;
48241;SDS011;34041;51.812;4.622;2023-06-14T13:52:43;3.35;;;2.03;;
48241;SDS011;34041;51.812;4.622;2023-06-14T13:55:43;3.07;;;1.53;;
48241;SDS011;34041;51.812;4.622;2023-06-14T13:58:43;2.67;;;1.30;;
48241;SDS011;34041;51.812;4.622;2023-06-14T14:01:43;2.30;;;1.33;;
48241;SDS011;34041;51.812;4.622;2023-06-14T14:04:44;1.90;;;1.20;;
48241;SDS011;34041;51.812;4.622;2023-06-14T14:07:44;2.83;;;1.30;;
48241;SDS011;34041;51.812;4.622;2023-06-14T14:10:44;2.50;;;1.60;;
48241;SDS011;34041;51.812;4.622;2023-06-14T14:13:45;3.42;;;1.67;;
48241;SDS011;34041;51.812;4.622;2023-06-14T14:16:46;3.75;;;1.80;;
48241;SDS011;34041;51.812;4.622;2023-06-14T14:19:46;3.47;;;1.80;;
48241;SDS011;34041;51.812;4.622;2023-06-14T14:22:46;2.70;;;1.53;;
48241;SDS011;34041;51.812;4.622;2023-06-14T14:25:46;1.93;;;1.20;;
48241;SDS011;34041;51.812;4.622;2023-06-14T14:28:47;2.47;;;1.30;;
48241;SDS011;34041;51.812;4.622;2023-06-14T14:31:47;4.23;;;2.17;;
48241;SDS011;34041;51.812;4.622;2023-06-14T14:34:47;3.10;;;1.70;;
48241;SDS011;34041;51.812;4.622;2023-06-14T14:37:47;2.60;;;1.40;;
48241;SDS011;34041;51.812;4.622;2023-06-14T14:40:48;3.47;;;1.40;;
48241;SDS011;34041;51.812;4.622;2023-06-14T14:43:48;2.77;;;1.77;;
48241;SDS011;34041;51.812;4.622;2023-06-14T14:46:48;3.10;;;1.60;;
48241;SDS011;34041;51.812;4.622;2023-06-14T14:49:48;3.45;;;1.55;;
48241;SDS011;34041;51.812;4.622;2023-06-14T14:52:49;4.03;;;1.13;;
48241;SDS011;34041;51.812;4.622;2023-06-14T14:55:49;2.40;;;1.50;;
48241;SDS011;34041;51.812;4.622;2023-06-14T14:58:49;2.60;;;1.50;;
48241;SDS011;34041;51.812;4.622;2023-06-14T15:01:50;2.60;;;1.67;;
48241;SDS011;34041;51.812;4.622;2023-06-14T15:04:50;1.90;;;1.35;;
48241;SDS011;34041;51.812;4.622;2023-06-14T15:07:51;4.03;;;1.40;;
48241;SDS011;34041;51.812;4.622;2023-06-14T15:10:52;2.28;;;1.30;;
48241;SDS011;34041;51.812;4.622;2023-06-14T15:13:52;7.37;;;1.83;;
48241;SDS011;34041;51.812;4.622;2023-06-14T15:16:52;2.50;;;1.60;;
48241;SDS011;34041;51.812;4.622;2023-06-14T15:19:53;3.30;;;1.90;;
48241;SDS011;34041;51.812;4.622;2023-06-14T15:22:53;4.77;;;1.77;;
48241;SDS011;34041;51.812;4.622;2023-06-14T15:25:59;5.05;;;1.80;;
48241;SDS011;34041;51.812;4.622;2023-06-14T15:28:59;3.45;;;1.20;;
48241;SDS011;34041;51.812;4.622;2023-06-14T15:32:00;3.03;;;1.30;;
48241;SDS011;34041;51.812;4.622;2023-06-14T15:35:01;3.05;;;1.35;;
48241;SDS011;34041;51.812;4.622;2023-06-14T15:38:01;2.87;;;1.50;;
48241;SDS011;34041;51.812;4.622;2023-06-14T15:41:01;4.03;;;1.80;;
48241;SDS011;34041;51.812;4.622;2023-06-14T15:44:02;3.20;;;1.65;;
48241;SDS011;34041;51.812;4.622;2023-06-14T15:47:02;2.80;;;1.42;;
48241;SDS011;34041;51.812;4.622;2023-06-14T15:50:03;4.63;;;1.48;;
48241;SDS011;34041;51.812;4.622;2023-06-14T15:53:05;3.47;;;1.40;;
48241;SDS011;34041;51.812;4.622;2023-06-14T15:56:05;3.00;;;1.47;;
48241;SDS011;34041;51.812;4.622;2023-06-14T15:59:05;6.47;;;1.48;;
48241;SDS011;34041;51.812;4.622;2023-06-14T16:02:07;3.42;;;1.55;;
48241;SDS011;34041;51.812;4.622;2023-06-14T16:05:07;2.93;;;1.53;;
48241;SDS011;34041;51.812;4.622;2023-06-14T16:08:07;3.58;;;1.35;;
48241;SDS011;34041;51.812;4.622;2023-06-14T16:11:08;7.80;;;1.37;;
48241;SDS011;34041;51.812;4.622;2023-06-14T16:14:08;1.73;;;0.98;;
48241;SDS011;34041;51.812;4.622;2023-06-14T16:17:08;1.87;;;1.00;;
48241;SDS011;34041;51.812;4.622;2023-06-14T16:20:09;2.40;;;1.35;;
48241;SDS011;34041;51.812;4.622;2023-06-14T16:23:09;2.47;;;1.08;;
48241;SDS011;34041;51.812;4.622;2023-06-14T16:26:10;4.07;;;1.40;;
48241;SDS011;34041;51.812;4.622;2023-06-14T16:29:13;2.97;;;1.40;;
48241;SDS011;34041;51.812;4.622;2023-06-14T16:32:14;2.50;;;1.17;;
48241;SDS011;34041;51.812;4.622;2023-06-14T16:35:14;3.75;;;1.50;;
48241;SDS011;34041;51.812;4.622;2023-06-14T16:38:14;4.60;;;1.50;;
48241;SDS011;34041;51.812;4.622;2023-06-14T16:41:15;2.17;;;1.10;;
48241;SDS011;34041;51.812;4.622;2023-06-14T16:44:15;1.77;;;1.10;;
48241;SDS011;34041;51.812;4.622;2023-06-14T16:47:15;2.27;;;1.40;;
48241;SDS011;34041;51.812;4.622;2023-06-14T16:50:15;3.53;;;1.60;;
48241;SDS011;34041;51.812;4.622;2023-06-14T16:53:15;4.27;;;1.47;;
48241;SDS011;34041;51.812;4.622;2023-06-14T16:56:16;3.03;;;1.20;;
48241;SDS011;34041;51.812;4.622;2023-06-14T16:59:16;4.25;;;1.13;;
48241;SDS011;34041;51.812;4.622;2023-06-14T17:02:17;2.13;;;1.02;;
48241;SDS011;34041;51.812;4.622;2023-06-14T17:05:17;2.80;;;1.20;;
48241;SDS011;34041;51.812;4.622;2023-06-14T17:08:17;3.90;;;1.10;;
48241;SDS011;34041;51.812;4.622;2023-06-14T17:11:18;2.10;;;1.08;;
48241;SDS011;34041;51.812;4.622;2023-06-14T17:14:22;3.83;;;0.98;;
48241;SDS011;34041;51.812;4.622;2023-06-14T17:17:22;3.45;;;1.25;;
48241;SDS011;34041;51.812;4.622;2023-06-14T17:20:22;2.27;;;1.60;;
48241;SDS011;34041;51.812;4.622;2023-06-14T17:23:23;1.98;;;1.15;;
48241;SDS011;34041;51.812;4.622;2023-06-14T17:26:23;2.40;;;1.10;;
48241;SDS011;34041;51.812;4.622;2023-06-14T17:29:25;3.63;;;1.25;;
48241;SDS011;34041;51.812;4.622;2023-06-14T17:32:26;1.77;;;0.88;;
48241;SDS011;34041;51.812;4.622;2023-06-14T17:35:26;2.43;;;1.00;;
48241;SDS011;34041;51.812;4.622;2023-06-14T17:38:27;1.70;;;1.17;;
48241;SDS011;34041;51.812;4.622;2023-06-14T17:41:29;1.63;;;0.93;;
48241;SDS011;34041;51.812;4.622;2023-06-14T17:44:30;2.67;;;0.90;;
48241;SDS011;34041;51.812;4.622;2023-06-14T17:47:30;3.13;;;0.90;;
48241;SDS011;34041;51.812;4.622;2023-06-14T17:50:30;2.13;;;1.00;;
48241;SDS011;34041;51.812;4.622;2023-06-14T17:53:31;2.15;;;1.23;;
48241;SDS011;34041;51.812;4.622;2023-06-14T17:56:31;1.67;;;0.73;;
48241;SDS011;34041;51.812;4.622;2023-06-14T17:59:32;4.03;;;1.15;;
48241;SDS011;34041;51.812;4.622;2023-06-14T18:02:32;4.00;;;1.00;;
48241;SDS011;34041;51.812;4.622;2023-06-14T18:05:32;1.60;;;0.90;;
48241;SDS011;34041;51.812;4.622;2023-06-14T18:08:33;6.68;;;1.23;;
48241;SDS011;34041;51.812;4.622;2023-06-14T18:11:33;2.50;;;1.00;;
48241;SDS011;34041;51.812;4.622;2023-06-14T18:14:33;2.27;;;1.17;;
48241;SDS011;34041;51.812;4.622;2023-06-14T18:17:33;2.27;;;1.03;;
48241;SDS011;34041;51.812;4.622;2023-06-14T18:20:33;5.10;;;1.60;;
48241;SDS011;34041;51.812;4.622;2023-06-14T18:23:34;2.30;;;1.20;;
48241;SDS011;34041;51.812;4.622;2023-06-14T18:26:34;4.25;;;1.33;;